sensor_id;sensor_type;location;lat;lon;timestamp;P1;durP1;ratioP1;P2;durP2;ratioP2
76123;SDS011;65173;48.066;20.976;2023-10-13T00:02:10;14.63;;;7.70;;
76123;SDS011;65173;48.066;20.976;2023-10-13T00:05:13;18.70;;;8.77;;
76123;SDS011;65173;48.066;20.976;2023-10-13T00:08:15;16.95;;;8.20;;
76123;SDS011;65173;48.066;20.976;2023-10-13T00:11:19;13.82;;;7.80;;
76123;SDS011;65173;48.066;20.976;2023-10-13T00:14:23;13.70;;;7.38;;
76123;SDS011;65173;48.066;20.976;2023-10-13T00:17:36;16.33;;;8.07;;
76123;SDS011;65173;48.066;20.976;2023-10-13T00:20:41;14.52;;;7.88;;
76123;SDS011;65173;48.066;20.976;2023-10-13T00:23:51;15.18;;;7.53;;
76123;SDS011;65173;48.066;20.976;2023-10-13T00:26:56;11.87;;;7.93;;
76123;SDS011;65173;48.066;20.976;2023-10-13T00:30:00;13.75;;;8.10;;
76123;SDS011;65173;48.066;20.976;2023-10-13T00:33:24;14.90;;;8.10;;
76123;SDS011;65173;48.066;20.976;2023-10-13T00:36:27;13.73;;;7.90;;
76123;SDS011;65173;48.066;20.976;2023-10-13T00:39:30;12.95;;;7.97;;
76123;SDS011;65173;48.066;20.976;2023-10-13T00:42:32;12.38;;;6.63;;
76123;SDS011;65173;48.066;20.976;2023-10-13T00:45:56;12.15;;;7.45;;
76123;SDS011;65173;48.066;20.976;2023-10-13T00:49:00;13.65;;;7.40;;
76123;SDS011;65173;48.066;20.976;2023-10-13T00:52:04;13.57;;;7.75;;
76123;SDS011;65173;48.066;20.976;2023-10-13T00:55:07;13.43;;;8.57;;
76123;SDS011;65173;48.066;20.976;2023-10-13T00:58:12;15.03;;;8.83;;
76123;SDS011;65173;48.066;20.976;2023-10-13T01:01:15;13.40;;;7.60;;
76123;SDS011;65173;48.066;20.976;2023-10-13T01:04:20;11.52;;;7.55;;
76123;SDS011;65173;48.066;20.976;2023-10-13T01:07:29;12.03;;;7.93;;
76123;SDS011;65173;48.066;20.976;2023-10-13T01:10:32;15.35;;;8.55;;
76123;SDS011;65173;48.066;20.976;2023-10-13T01:13:35;18.95;;;8.55;;
76123;SDS011;65173;48.066;20.976;2023-10-13T01:16:38;14.23;;;7.30;;
76123;SDS011;65173;48.066;20.976;2023-10-13T01:19:48;14.25;;;7.30;;
76123;SDS011;65173;48.066;20.976;2023-10-13T01:22:51;13.05;;;7.85;;
76123;SDS011;65173;48.066;20.976;2023-10-13T01:25:57;12.80;;;8.07;;
76123;SDS011;65173;48.066;20.976;2023-10-13T01:29:00;12.23;;;7.90;;
76123;SDS011;65173;48.066;20.976;2023-10-13T01:32:03;16.83;;;7.55;;
76123;SDS011;65173;48.066;20.976;2023-10-13T01:35:06;11.25;;;7.15;;
76123;SDS011;65173;48.066;20.976;2023-10-13T01:38:09;13.93;;;7.47;;
76123;SDS011;65173;48.066;20.976;2023-10-13T01:41:12;9.82;;;7.90;;
76123;SDS011;65173;48.066;20.976;2023-10-13T01:44:16;13.27;;;7.88;;
76123;SDS011;65173;48.066;20.976;2023-10-13T01:47:19;11.07;;;6.90;;
76123;SDS011;65173;48.066;20.976;2023-10-13T01:50:24;13.80;;;7.78;;
76123;SDS011;65173;48.066;20.976;2023-10-13T01:53:31;13.75;;;7.43;;
76123;SDS011;65173;48.066;20.976;2023-10-13T01:56:34;18.10;;;8.45;;
76123;SDS011;65173;48.066;20.976;2023-10-13T01:59:44;12.33;;;7.47;;
76123;SDS011;65173;48.066;20.976;2023-10-13T02:02:51;15.10;;;8.45;;
76123;SDS011;65173;48.066;20.976;2023-10-13T02:05:55;17.35;;;6.93;;
76123;SDS011;65173;48.066;20.976;2023-10-13T02:09:00;13.50;;;6.37;;
76123;SDS011;65173;48.066;20.976;2023-10-13T02:12:19;8.73;;;6.15;;
76123;SDS011;65173;48.066;20.976;2023-10-13T02:15:27;8.75;;;5.95;;
76123;SDS011;65173;48.066;20.976;2023-10-13T02:18:36;8.02;;;5.47;;
76123;SDS011;65173;48.066;20.976;2023-10-13T02:21:45;12.30;;;5.72;;
76123;SDS011;65173;48.066;20.976;2023-10-13T02:25:00;9.88;;;6.03;;
76123;SDS011;65173;48.066;20.976;2023-10-13T02:28:09;10.20;;;6.15;;
76123;SDS011;65173;48.066;20.976;2023-10-13T02:31:16;12.20;;;6.40;;
76123;SDS011;65173;48.066;20.976;2023-10-13T02:34:21;17.52;;;7.78;;
76123;SDS011;65173;48.066;20.976;2023-10-13T02:37:26;8.98;;;5.78;;
76123;SDS011;65173;48.066;20.976;2023-10-13T02:40:34;10.93;;;5.67;;
76123;SDS011;65173;48.066;20.976;2023-10-13T02:43:37;12.77;;;6.38;;
76123;SDS011;65173;48.066;20.976;2023-10-13T02:46:40;7.82;;;5.88;;
76123;SDS011;65173;48.066;20.976;2023-10-13T02:49:42;13.40;;;6.40;;
76123;SDS011;65173;48.066;20.976;2023-10-13T02:52:45;13.38;;;6.53;;
76123;SDS011;65173;48.066;20.976;2023-10-13T02:55:53;9.05;;;5.85;;
76123;SDS011;65173;48.066;20.976;2023-10-13T02:59:08;11.32;;;6.03;;
76123;SDS011;65173;48.066;20.976;2023-10-13T03:02:14;7.00;;;5.47;;
76123;SDS011;65173;48.066;20.976;2023-10-13T03:05:21;14.07;;;5.78;;
76123;SDS011;65173;48.066;20.976;2023-10-13T03:08:24;9.40;;;6.07;;
76123;SDS011;65173;48.066;20.976;2023-10-13T03:11:29;7.17;;;4.80;;
76123;SDS011;65173;48.066;20.976;2023-10-13T03:14:35;12.85;;;5.25;;
76123;SDS011;65173;48.066;20.976;2023-10-13T03:17:37;13.73;;;6.68;;
76123;SDS011;65173;48.066;20.976;2023-10-13T03:20:45;10.02;;;5.78;;
76123;SDS011;65173;48.066;20.976;2023-10-13T03:23:52;7.07;;;5.13;;
76123;SDS011;65173;48.066;20.976;2023-10-13T03:26:56;8.35;;;5.78;;
76123;SDS011;65173;48.066;20.976;2023-10-13T03:29:58;7.53;;;5.63;;
76123;SDS011;65173;48.066;20.976;2023-10-13T03:33:03;8.87;;;4.67;;
76123;SDS011;65173;48.066;20.976;2023-10-13T03:36:13;11.55;;;6.18;;
76123;SDS011;65173;48.066;20.976;2023-10-13T03:39:35;9.18;;;5.63;;
76123;SDS011;65173;48.066;20.976;2023-10-13T03:42:38;12.03;;;6.07;;
76123;SDS011;65173;48.066;20.976;2023-10-13T03:45:43;12.15;;;5.85;;
76123;SDS011;65173;48.066;20.976;2023-10-13T03:48:50;9.65;;;5.60;;
76123;SDS011;65173;48.066;20.976;2023-10-13T03:52:03;11.75;;;6.35;;
76123;SDS011;65173;48.066;20.976;2023-10-13T03:55:08;8.63;;;6.40;;
76123;SDS011;65173;48.066;20.976;2023-10-13T03:58:19;9.43;;;6.43;;
76123;SDS011;65173;48.066;20.976;2023-10-13T04:01:25;9.70;;;6.07;;
76123;SDS011;65173;48.066;20.976;2023-10-13T04:04:36;8.73;;;5.53;;
76123;SDS011;65173;48.066;20.976;2023-10-13T04:07:51;11.60;;;5.43;;
76123;SDS011;65173;48.066;20.976;2023-10-13T04:11:12;8.00;;;5.90;;
76123;SDS011;65173;48.066;20.976;2023-10-13T04:14:34;10.13;;;5.60;;
76123;SDS011;65173;48.066;20.976;2023-10-13T04:17:57;10.65;;;6.22;;
76123;SDS011;65173;48.066;20.976;2023-10-13T04:21:00;9.73;;;6.22;;
76123;SDS011;65173;48.066;20.976;2023-10-13T04:24:12;10.10;;;6.13;;
76123;SDS011;65173;48.066;20.976;2023-10-13T04:27:20;14.00;;;6.78;;
76123;SDS011;65173;48.066;20.976;2023-10-13T04:34:00;9.15;;;5.07;;
76123;SDS011;65173;48.066;20.976;2023-10-13T04:37:04;9.83;;;5.60;;
76123;SDS011;65173;48.066;20.976;2023-10-13T04:40:30;8.20;;;5.70;;
76123;SDS011;65173;48.066;20.976;2023-10-13T04:43:37;9.65;;;5.80;;
76123;SDS011;65173;48.066;20.976;2023-10-13T04:47:00;8.03;;;5.63;;
76123;SDS011;65173;48.066;20.976;2023-10-13T04:50:04;9.45;;;6.10;;
76123;SDS011;65173;48.066;20.976;2023-10-13T04:53:23;7.90;;;5.85;;
76123;SDS011;65173;48.066;20.976;2023-10-13T04:56:31;14.05;;;6.22;;
76123;SDS011;65173;48.066;20.976;2023-10-13T04:59:56;10.73;;;5.95;;
76123;SDS011;65173;48.066;20.976;2023-10-13T05:03:11;6.93;;;5.32;;
76123;SDS011;65173;48.066;20.976;2023-10-13T05:06:40;11.80;;;5.88;;
76123;SDS011;65173;48.066;20.976;2023-10-13T05:09:48;8.33;;;5.03;;
76123;SDS011;65173;48.066;20.976;2023-10-13T05:13:08;9.02;;;6.15;;
76123;SDS011;65173;48.066;20.976;2023-10-13T05:16:29;14.10;;;6.55;;
76123;SDS011;65173;48.066;20.976;2023-10-13T05:19:50;10.90;;;6.77;;
76123;SDS011;65173;48.066;20.976;2023-10-13T05:23:12;7.07;;;5.70;;
76123;SDS011;65173;48.066;20.976;2023-10-13T05:26:33;10.23;;;5.85;;
76123;SDS011;65173;48.066;20.976;2023-10-13T05:29:54;12.18;;;6.90;;
76123;SDS011;65173;48.066;20.976;2023-10-13T05:33:15;9.75;;;7.10;;
76123;SDS011;65173;48.066;20.976;2023-10-13T05:36:35;11.23;;;6.55;;
76123;SDS011;65173;48.066;20.976;2023-10-13T05:39:57;7.47;;;5.43;;
76123;SDS011;65173;48.066;20.976;2023-10-13T05:43:17;10.43;;;5.80;;
76123;SDS011;65173;48.066;20.976;2023-10-13T05:46:39;11.27;;;6.15;;
76123;SDS011;65173;48.066;20.976;2023-10-13T05:49:42;15.15;;;8.18;;
76123;SDS011;65173;48.066;20.976;2023-10-13T05:53:04;16.73;;;6.70;;
76123;SDS011;65173;48.066;20.976;2023-10-13T05:56:13;11.90;;;7.32;;
76123;SDS011;65173;48.066;20.976;2023-10-13T05:59:35;10.20;;;7.28;;
76123;SDS011;65173;48.066;20.976;2023-10-13T06:02:57;14.57;;;7.40;;
76123;SDS011;65173;48.066;20.976;2023-10-13T06:06:18;16.05;;;8.13;;
76123;SDS011;65173;48.066;20.976;2023-10-13T06:09:39;10.27;;;6.53;;
76123;SDS011;65173;48.066;20.976;2023-10-13T06:13:00;13.48;;;7.45;;
76123;SDS011;65173;48.066;20.976;2023-10-13T06:16:21;14.67;;;7.20;;
76123;SDS011;65173;48.066;20.976;2023-10-13T06:19:42;14.18;;;6.90;;
76123;SDS011;65173;48.066;20.976;2023-10-13T06:23:03;10.52;;;6.78;;
76123;SDS011;65173;48.066;20.976;2023-10-13T06:26:24;11.70;;;5.90;;
76123;SDS011;65173;48.066;20.976;2023-10-13T06:29:45;12.68;;;6.57;;
76123;SDS011;65173;48.066;20.976;2023-10-13T06:32:48;10.32;;;6.85;;
76123;SDS011;65173;48.066;20.976;2023-10-13T06:35:53;9.07;;;6.40;;
76123;SDS011;65173;48.066;20.976;2023-10-13T06:38:58;10.70;;;6.25;;
76123;SDS011;65173;48.066;20.976;2023-10-13T06:42:19;11.05;;;6.30;;
76123;SDS011;65173;48.066;20.976;2023-10-13T06:45:23;6.93;;;5.10;;
76123;SDS011;65173;48.066;20.976;2023-10-13T06:48:30;11.10;;;4.63;;
76123;SDS011;65173;48.066;20.976;2023-10-13T06:51:35;7.38;;;4.78;;
76123;SDS011;65173;48.066;20.976;2023-10-13T06:54:40;10.55;;;4.55;;
76123;SDS011;65173;48.066;20.976;2023-10-13T06:57:43;15.33;;;4.63;;
76123;SDS011;65173;48.066;20.976;2023-10-13T07:00:46;8.23;;;4.38;;
76123;SDS011;65173;48.066;20.976;2023-10-13T07:04:00;8.70;;;4.38;;
76123;SDS011;65173;48.066;20.976;2023-10-13T07:07:05;12.23;;;5.13;;
76123;SDS011;65173;48.066;20.976;2023-10-13T07:10:12;8.65;;;4.43;;
76123;SDS011;65173;48.066;20.976;2023-10-13T07:13:15;5.95;;;4.93;;
76123;SDS011;65173;48.066;20.976;2023-10-13T07:16:19;9.10;;;4.68;;
76123;SDS011;65173;48.066;20.976;2023-10-13T07:19:31;8.83;;;4.63;;
76123;SDS011;65173;48.066;20.976;2023-10-13T07:22:38;8.27;;;4.60;;
76123;SDS011;65173;48.066;20.976;2023-10-13T07:25:43;9.63;;;5.20;;
76123;SDS011;65173;48.066;20.976;2023-10-13T07:28:53;5.60;;;3.70;;
76123;SDS011;65173;48.066;20.976;2023-10-13T07:31:56;7.25;;;4.85;;
76123;SDS011;65173;48.066;20.976;2023-10-13T07:34:58;8.52;;;5.18;;
76123;SDS011;65173;48.066;20.976;2023-10-13T07:38:10;8.23;;;4.88;;
76123;SDS011;65173;48.066;20.976;2023-10-13T07:41:13;8.93;;;3.97;;
76123;SDS011;65173;48.066;20.976;2023-10-13T07:44:18;12.40;;;4.72;;
76123;SDS011;65173;48.066;20.976;2023-10-13T07:47:22;9.25;;;5.00;;
76123;SDS011;65173;48.066;20.976;2023-10-13T07:50:27;11.23;;;5.40;;
76123;SDS011;65173;48.066;20.976;2023-10-13T07:53:29;10.80;;;4.97;;
76123;SDS011;65173;48.066;20.976;2023-10-13T07:56:41;8.50;;;5.68;;
76123;SDS011;65173;48.066;20.976;2023-10-13T07:59:43;7.20;;;5.10;;
76123;SDS011;65173;48.066;20.976;2023-10-13T08:03:01;7.32;;;4.97;;
76123;SDS011;65173;48.066;20.976;2023-10-13T08:06:19;9.07;;;4.85;;
76123;SDS011;65173;48.066;20.976;2023-10-13T08:09:23;12.20;;;5.28;;
76123;SDS011;65173;48.066;20.976;2023-10-13T08:12:42;8.85;;;5.07;;
76123;SDS011;65173;48.066;20.976;2023-10-13T08:15:46;6.88;;;5.15;;
76123;SDS011;65173;48.066;20.976;2023-10-13T08:18:55;13.68;;;6.75;;
76123;SDS011;65173;48.066;20.976;2023-10-13T08:21:58;7.60;;;5.17;;
76123;SDS011;65173;48.066;20.976;2023-10-13T08:25:03;7.68;;;5.15;;
76123;SDS011;65173;48.066;20.976;2023-10-13T08:28:23;8.45;;;5.53;;
76123;SDS011;65173;48.066;20.976;2023-10-13T08:31:58;10.00;;;6.00;;
76123;SDS011;65173;48.066;20.976;2023-10-13T08:35:22;7.60;;;5.53;;
76123;SDS011;65173;48.066;20.976;2023-10-13T08:38:36;8.50;;;5.60;;
76123;SDS011;65173;48.066;20.976;2023-10-13T08:41:53;10.90;;;5.63;;
76123;SDS011;65173;48.066;20.976;2023-10-13T08:45:14;7.50;;;5.47;;
76123;SDS011;65173;48.066;20.976;2023-10-13T08:48:30;8.13;;;5.95;;
76123;SDS011;65173;48.066;20.976;2023-10-13T08:51:36;6.95;;;5.43;;
76123;SDS011;65173;48.066;20.976;2023-10-13T08:54:47;9.30;;;5.70;;
76123;SDS011;65173;48.066;20.976;2023-10-13T08:58:04;7.85;;;4.65;;
76123;SDS011;65173;48.066;20.976;2023-10-13T09:01:16;9.25;;;5.78;;
76123;SDS011;65173;48.066;20.976;2023-10-13T09:04:39;6.87;;;5.10;;
76123;SDS011;65173;48.066;20.976;2023-10-13T09:07:46;8.85;;;5.47;;
76123;SDS011;65173;48.066;20.976;2023-10-13T09:11:04;7.95;;;5.90;;
76123;SDS011;65173;48.066;20.976;2023-10-13T09:14:16;7.32;;;5.38;;
76123;SDS011;65173;48.066;20.976;2023-10-13T09:17:46;8.65;;;5.38;;
76123;SDS011;65173;48.066;20.976;2023-10-13T09:21:10;9.27;;;4.93;;
76123;SDS011;65173;48.066;20.976;2023-10-13T09:24:46;6.75;;;5.53;;
76123;SDS011;65173;48.066;20.976;2023-10-13T09:27:53;8.03;;;5.67;;
76123;SDS011;65173;48.066;20.976;2023-10-13T09:30:56;8.98;;;5.38;;
76123;SDS011;65173;48.066;20.976;2023-10-13T09:34:01;6.03;;;4.28;;
76123;SDS011;65173;48.066;20.976;2023-10-13T09:37:05;5.77;;;4.83;;
76123;SDS011;65173;48.066;20.976;2023-10-13T09:40:09;8.32;;;5.13;;
76123;SDS011;65173;48.066;20.976;2023-10-13T09:43:27;8.88;;;5.75;;
76123;SDS011;65173;48.066;20.976;2023-10-13T09:46:33;7.53;;;5.57;;
76123;SDS011;65173;48.066;20.976;2023-10-13T09:49:44;6.05;;;5.20;;
76123;SDS011;65173;48.066;20.976;2023-10-13T09:52:48;9.85;;;5.28;;
76123;SDS011;65173;48.066;20.976;2023-10-13T09:55:54;10.13;;;5.30;;
76123;SDS011;65173;48.066;20.976;2023-10-13T09:59:08;5.93;;;4.50;;
76123;SDS011;65173;48.066;20.976;2023-10-13T10:02:15;8.02;;;5.55;;
76123;SDS011;65173;48.066;20.976;2023-10-13T10:05:25;10.30;;;5.63;;
76123;SDS011;65173;48.066;20.976;2023-10-13T10:08:28;9.73;;;5.47;;
76123;SDS011;65173;48.066;20.976;2023-10-13T10:18:36;6.68;;;5.03;;
76123;SDS011;65173;48.066;20.976;2023-10-13T10:21:41;8.05;;;4.63;;
76123;SDS011;65173;48.066;20.976;2023-10-13T10:24:55;7.15;;;5.13;;
76123;SDS011;65173;48.066;20.976;2023-10-13T10:28:04;10.73;;;5.32;;
76123;SDS011;65173;48.066;20.976;2023-10-13T10:31:08;10.07;;;4.73;;
76123;SDS011;65173;48.066;20.976;2023-10-13T10:34:15;7.63;;;4.78;;
76123;SDS011;65173;48.066;20.976;2023-10-13T10:37:21;7.15;;;4.72;;
76123;SDS011;65173;48.066;20.976;2023-10-13T10:40:25;8.47;;;4.67;;
76123;SDS011;65173;48.066;20.976;2023-10-13T10:43:49;14.35;;;5.53;;
76123;SDS011;65173;48.066;20.976;2023-10-13T10:46:51;6.93;;;4.93;;
76123;SDS011;65173;48.066;20.976;2023-10-13T10:49:59;8.65;;;4.70;;
76123;SDS011;65173;48.066;20.976;2023-10-13T10:53:09;11.02;;;4.93;;
76123;SDS011;65173;48.066;20.976;2023-10-13T10:56:12;6.65;;;4.32;;
76123;SDS011;65173;48.066;20.976;2023-10-13T10:59:22;7.63;;;4.95;;
76123;SDS011;65173;48.066;20.976;2023-10-13T11:02:30;8.27;;;4.03;;
76123;SDS011;65173;48.066;20.976;2023-10-13T11:05:43;9.68;;;4.93;;
76123;SDS011;65173;48.066;20.976;2023-10-13T11:08:47;5.82;;;4.07;;
76123;SDS011;65173;48.066;20.976;2023-10-13T11:11:54;6.30;;;4.47;;
76123;SDS011;65173;48.066;20.976;2023-10-13T11:15:00;6.38;;;3.92;;
76123;SDS011;65173;48.066;20.976;2023-10-13T11:18:04;10.70;;;4.35;;
76123;SDS011;65173;48.066;20.976;2023-10-13T11:21:08;5.70;;;4.30;;
76123;SDS011;65173;48.066;20.976;2023-10-13T11:24:17;6.75;;;4.72;;
76123;SDS011;65173;48.066;20.976;2023-10-13T11:27:20;7.78;;;4.43;;
76123;SDS011;65173;48.066;20.976;2023-10-13T11:30:45;5.43;;;3.25;;
76123;SDS011;65173;48.066;20.976;2023-10-13T11:34:10;11.07;;;4.70;;
76123;SDS011;65173;48.066;20.976;2023-10-13T11:37:17;5.13;;;4.25;;
76123;SDS011;65173;48.066;20.976;2023-10-13T11:40:40;7.15;;;3.30;;
76123;SDS011;65173;48.066;20.976;2023-10-13T11:43:51;5.77;;;3.40;;
76123;SDS011;65173;48.066;20.976;2023-10-13T11:46:55;5.47;;;4.00;;
76123;SDS011;65173;48.066;20.976;2023-10-13T11:49:59;4.65;;;3.78;;
76123;SDS011;65173;48.066;20.976;2023-10-13T11:53:02;6.97;;;4.10;;
76123;SDS011;65173;48.066;20.976;2023-10-13T11:56:09;5.13;;;3.63;;
76123;SDS011;65173;48.066;20.976;2023-10-13T11:59:12;4.40;;;3.60;;
76123;SDS011;65173;48.066;20.976;2023-10-13T12:02:29;6.18;;;3.70;;
76123;SDS011;65173;48.066;20.976;2023-10-13T12:05:32;6.37;;;4.80;;
76123;SDS011;65173;48.066;20.976;2023-10-13T12:08:51;8.73;;;5.28;;
76123;SDS011;65173;48.066;20.976;2023-10-13T12:11:55;5.35;;;3.63;;
76123;SDS011;65173;48.066;20.976;2023-10-13T12:15:02;7.13;;;5.47;;
76123;SDS011;65173;48.066;20.976;2023-10-13T12:18:11;7.07;;;4.93;;
76123;SDS011;65173;48.066;20.976;2023-10-13T12:21:17;7.00;;;4.40;;
76123;SDS011;65173;48.066;20.976;2023-10-13T12:27:39;6.32;;;3.55;;
76123;SDS011;65173;48.066;20.976;2023-10-13T12:30:53;3.95;;;3.13;;
76123;SDS011;65173;48.066;20.976;2023-10-13T12:33:56;10.25;;;3.45;;
76123;SDS011;65173;48.066;20.976;2023-10-13T12:37:08;5.37;;;3.07;;
76123;SDS011;65173;48.066;20.976;2023-10-13T12:40:30;4.50;;;3.03;;
76123;SDS011;65173;48.066;20.976;2023-10-13T12:43:51;3.83;;;2.45;;
76123;SDS011;65173;48.066;20.976;2023-10-13T12:47:12;2.93;;;2.60;;
76123;SDS011;65173;48.066;20.976;2023-10-13T12:50:34;3.40;;;2.80;;
76123;SDS011;65173;48.066;20.976;2023-10-13T12:53:50;5.10;;;2.55;;
76123;SDS011;65173;48.066;20.976;2023-10-13T12:56:53;4.57;;;2.75;;
76123;SDS011;65173;48.066;20.976;2023-10-13T12:59:59;4.25;;;3.38;;
76123;SDS011;65173;48.066;20.976;2023-10-13T13:03:03;5.55;;;2.88;;
76123;SDS011;65173;48.066;20.976;2023-10-13T13:06:20;2.88;;;2.17;;
76123;SDS011;65173;48.066;20.976;2023-10-13T13:09:27;5.17;;;2.80;;
76123;SDS011;65173;48.066;20.976;2023-10-13T13:12:30;2.72;;;2.28;;
76123;SDS011;65173;48.066;20.976;2023-10-13T13:15:32;3.85;;;2.33;;
76123;SDS011;65173;48.066;20.976;2023-10-13T13:18:35;4.00;;;2.67;;
76123;SDS011;65173;48.066;20.976;2023-10-13T13:21:37;5.75;;;2.72;;
76123;SDS011;65173;48.066;20.976;2023-10-13T13:24:40;3.17;;;2.05;;
76123;SDS011;65173;48.066;20.976;2023-10-13T13:27:47;5.22;;;2.10;;
76123;SDS011;65173;48.066;20.976;2023-10-13T13:30:49;2.92;;;1.73;;
76123;SDS011;65173;48.066;20.976;2023-10-13T13:33:53;4.18;;;2.35;;
76123;SDS011;65173;48.066;20.976;2023-10-13T13:36:56;2.53;;;1.83;;
76123;SDS011;65173;48.066;20.976;2023-10-13T13:40:06;2.60;;;2.20;;
76123;SDS011;65173;48.066;20.976;2023-10-13T13:43:18;3.67;;;2.63;;
76123;SDS011;65173;48.066;20.976;2023-10-13T13:46:34;4.55;;;2.30;;
76123;SDS011;65173;48.066;20.976;2023-10-13T13:49:43;4.93;;;2.47;;
76123;SDS011;65173;48.066;20.976;2023-10-13T13:52:54;4.43;;;3.00;;
76123;SDS011;65173;48.066;20.976;2023-10-13T13:56:01;4.97;;;2.53;;
76123;SDS011;65173;48.066;20.976;2023-10-13T13:59:05;4.53;;;2.72;;
76123;SDS011;65173;48.066;20.976;2023-10-13T14:02:10;4.13;;;3.25;;
76123;SDS011;65173;48.066;20.976;2023-10-13T14:05:22;5.57;;;2.78;;
76123;SDS011;65173;48.066;20.976;2023-10-13T14:08:25;3.85;;;2.78;;
76123;SDS011;65173;48.066;20.976;2023-10-13T14:11:30;5.53;;;2.47;;
76123;SDS011;65173;48.066;20.976;2023-10-13T14:14:42;6.63;;;2.28;;
76123;SDS011;65173;48.066;20.976;2023-10-13T14:17:52;4.00;;;2.67;;
76123;SDS011;65173;48.066;20.976;2023-10-13T14:20:54;4.70;;;2.77;;
76123;SDS011;65173;48.066;20.976;2023-10-13T14:23:58;10.48;;;2.92;;
76123;SDS011;65173;48.066;20.976;2023-10-13T14:27:03;3.05;;;2.53;;
76123;SDS011;65173;48.066;20.976;2023-10-13T14:30:18;4.18;;;2.42;;
76123;SDS011;65173;48.066;20.976;2023-10-13T14:33:25;6.70;;;3.10;;
76123;SDS011;65173;48.066;20.976;2023-10-13T14:36:28;4.85;;;2.67;;
76123;SDS011;65173;48.066;20.976;2023-10-13T14:39:37;6.30;;;2.63;;
76123;SDS011;65173;48.066;20.976;2023-10-13T14:42:39;4.27;;;2.80;;
76123;SDS011;65173;48.066;20.976;2023-10-13T14:45:44;9.02;;;2.40;;
76123;SDS011;65173;48.066;20.976;2023-10-13T14:48:47;8.40;;;3.13;;
76123;SDS011;65173;48.066;20.976;2023-10-13T14:51:51;8.50;;;3.07;;
76123;SDS011;65173;48.066;20.976;2023-10-13T14:54:53;4.93;;;2.92;;
76123;SDS011;65173;48.066;20.976;2023-10-13T14:57:58;5.05;;;3.03;;
76123;SDS011;65173;48.066;20.976;2023-10-13T15:01:01;6.18;;;2.92;;
76123;SDS011;65173;48.066;20.976;2023-10-13T15:04:05;8.07;;;4.30;;
76123;SDS011;65173;48.066;20.976;2023-10-13T15:07:08;4.25;;;3.13;;
76123;SDS011;65173;48.066;20.976;2023-10-13T15:10:11;5.07;;;3.20;;
76123;SDS011;65173;48.066;20.976;2023-10-13T15:13:17;7.20;;;3.20;;
76123;SDS011;65173;48.066;20.976;2023-10-13T15:16:22;6.28;;;3.35;;
76123;SDS011;65173;48.066;20.976;2023-10-13T15:19:25;5.88;;;2.80;;
76123;SDS011;65173;48.066;20.976;2023-10-13T15:22:28;6.97;;;3.40;;
76123;SDS011;65173;48.066;20.976;2023-10-13T15:25:31;10.65;;;3.90;;
76123;SDS011;65173;48.066;20.976;2023-10-13T15:28:43;7.60;;;4.05;;
76123;SDS011;65173;48.066;20.976;2023-10-13T15:31:52;60.63;;;23.33;;
76123;SDS011;65173;48.066;20.976;2023-10-13T15:35:01;46.22;;;18.48;;
76123;SDS011;65173;48.066;20.976;2023-10-13T15:38:03;83.07;;;31.58;;
76123;SDS011;65173;48.066;20.976;2023-10-13T15:41:06;95.90;;;36.55;;
76123;SDS011;65173;48.066;20.976;2023-10-13T15:44:11;35.13;;;17.40;;
76123;SDS011;65173;48.066;20.976;2023-10-13T15:47:15;12.77;;;6.78;;
76123;SDS011;65173;48.066;20.976;2023-10-13T15:50:20;11.82;;;5.25;;
76123;SDS011;65173;48.066;20.976;2023-10-13T15:53:24;9.50;;;5.70;;
76123;SDS011;65173;48.066;20.976;2023-10-13T15:56:27;18.33;;;6.38;;
76123;SDS011;65173;48.066;20.976;2023-10-13T15:59:30;25.90;;;11.07;;
76123;SDS011;65173;48.066;20.976;2023-10-13T16:02:32;44.15;;;17.23;;
76123;SDS011;65173;48.066;20.976;2023-10-13T16:05:35;27.95;;;13.35;;
76123;SDS011;65173;48.066;20.976;2023-10-13T16:08:39;15.65;;;8.43;;
76123;SDS011;65173;48.066;20.976;2023-10-13T16:11:45;18.05;;;9.30;;
76123;SDS011;65173;48.066;20.976;2023-10-13T16:14:48;9.80;;;5.30;;
76123;SDS011;65173;48.066;20.976;2023-10-13T16:17:50;9.20;;;4.18;;
76123;SDS011;65173;48.066;20.976;2023-10-13T16:20:56;5.88;;;3.63;;
76123;SDS011;65173;48.066;20.976;2023-10-13T16:23:58;8.90;;;3.73;;
76123;SDS011;65173;48.066;20.976;2023-10-13T16:27:01;9.75;;;4.07;;
76123;SDS011;65173;48.066;20.976;2023-10-13T16:30:04;6.40;;;4.18;;
76123;SDS011;65173;48.066;20.976;2023-10-13T16:33:11;7.20;;;3.92;;
76123;SDS011;65173;48.066;20.976;2023-10-13T16:36:15;18.33;;;7.47;;
76123;SDS011;65173;48.066;20.976;2023-10-13T16:39:18;10.85;;;6.55;;
76123;SDS011;65173;48.066;20.976;2023-10-13T16:42:25;12.82;;;5.10;;
76123;SDS011;65173;48.066;20.976;2023-10-13T16:45:27;12.53;;;4.50;;
76123;SDS011;65173;48.066;20.976;2023-10-13T16:48:33;8.85;;;4.80;;
76123;SDS011;65173;48.066;20.976;2023-10-13T16:51:36;10.48;;;4.40;;
76123;SDS011;65173;48.066;20.976;2023-10-13T16:54:39;9.10;;;4.13;;
76123;SDS011;65173;48.066;20.976;2023-10-13T16:57:41;7.63;;;4.45;;
76123;SDS011;65173;48.066;20.976;2023-10-13T17:00:45;8.40;;;4.82;;
76123;SDS011;65173;48.066;20.976;2023-10-13T17:03:53;9.20;;;4.95;;
76123;SDS011;65173;48.066;20.976;2023-10-13T17:06:56;15.50;;;5.82;;
76123;SDS011;65173;48.066;20.976;2023-10-13T17:09:59;14.68;;;6.80;;
76123;SDS011;65173;48.066;20.976;2023-10-13T17:13:03;22.38;;;9.07;;
76123;SDS011;65173;48.066;20.976;2023-10-13T17:16:13;50.70;;;20.50;;
76123;SDS011;65173;48.066;20.976;2023-10-13T17:19:18;45.75;;;18.10;;
76123;SDS011;65173;48.066;20.976;2023-10-13T17:22:21;46.88;;;20.98;;
76123;SDS011;65173;48.066;20.976;2023-10-13T17:25:26;38.10;;;16.43;;
76123;SDS011;65173;48.066;20.976;2023-10-13T17:28:29;26.38;;;11.82;;
76123;SDS011;65173;48.066;20.976;2023-10-13T17:31:31;21.52;;;10.30;;
76123;SDS011;65173;48.066;20.976;2023-10-13T17:34:35;30.42;;;11.98;;
76123;SDS011;65173;48.066;20.976;2023-10-13T17:37:38;34.47;;;14.82;;
76123;SDS011;65173;48.066;20.976;2023-10-13T17:40:44;40.30;;;16.38;;
76123;SDS011;65173;48.066;20.976;2023-10-13T17:43:47;32.92;;;14.98;;
76123;SDS011;65173;48.066;20.976;2023-10-13T17:46:49;39.30;;;16.10;;
76123;SDS011;65173;48.066;20.976;2023-10-13T17:49:52;35.08;;;14.32;;
76123;SDS011;65173;48.066;20.976;2023-10-13T17:52:54;36.25;;;14.15;;
76123;SDS011;65173;48.066;20.976;2023-10-13T17:55:57;26.67;;;12.90;;
76123;SDS011;65173;48.066;20.976;2023-10-13T17:59:02;29.13;;;13.32;;
76123;SDS011;65173;48.066;20.976;2023-10-13T18:02:06;31.55;;;14.27;;
76123;SDS011;65173;48.066;20.976;2023-10-13T18:05:09;29.90;;;13.18;;
76123;SDS011;65173;48.066;20.976;2023-10-13T18:08:12;31.08;;;14.55;;
76123;SDS011;65173;48.066;20.976;2023-10-13T18:11:15;30.45;;;12.23;;
76123;SDS011;65173;48.066;20.976;2023-10-13T18:14:18;26.20;;;12.15;;
76123;SDS011;65173;48.066;20.976;2023-10-13T18:17:22;21.00;;;11.03;;
76123;SDS011;65173;48.066;20.976;2023-10-13T18:20:24;23.40;;;11.70;;
76123;SDS011;65173;48.066;20.976;2023-10-13T18:23:27;24.00;;;10.95;;
76123;SDS011;65173;48.066;20.976;2023-10-13T18:26:30;25.93;;;10.90;;
76123;SDS011;65173;48.066;20.976;2023-10-13T18:29:32;24.42;;;9.80;;
76123;SDS011;65173;48.066;20.976;2023-10-13T18:32:36;25.73;;;11.10;;
76123;SDS011;65173;48.066;20.976;2023-10-13T18:35:38;18.27;;;9.30;;
76123;SDS011;65173;48.066;20.976;2023-10-13T18:38:42;25.73;;;9.18;;
76123;SDS011;65173;48.066;20.976;2023-10-13T18:41:49;27.05;;;9.85;;
76123;SDS011;65173;48.066;20.976;2023-10-13T18:44:51;24.27;;;9.32;;